Time;durP1;ratioP1;P1;durP2;ratioP2;P2;SDS_P1;SDS_P2;PMS_P1;PMS_P2;Temp;Humidity;BMP_temperature;BMP_pressure;BME280_temperature;BME280_humidity;BME280_pressure;Samples;Min_cycle;Max_cycle;Signal;HPM_P1;HPM_P2
2022/06/25 00:01:51;;;;;;;2.67;0.80;;;21.90;45.50;;;;;;5089415;28;20654;-78
2022/06/25 00:07:01;;;;;;;2.58;0.63;;;21.70;46.10;;;;;;5090237;28;20871;-78
2022/06/25 00:09:27;;;;;;;1.80;0.60;;;21.60;46.20;;;;;;5089837;28;20027;-79
2022/06/25 00:14:38;;;;;;;2.05;0.50;;;21.40;46.50;;;;;;5089127;28;20030;-80
2022/06/25 00:17:04;;;;;;;1.80;0.70;;;21.40;46.70;;;;;;5071146;28;20469;-80
2022/06/25 00:19:30;;;;;;;1.85;0.60;;;21.40;47.10;;;;;;5089585;28;20048;-80
2022/06/25 00:21:56;;;;;;;2.65;0.50;;;21.30;47.10;;;;;;5089715;28;20078;-80
2022/06/25 00:24:22;;;;;;;2.08;0.57;;;21.30;47.30;;;;;;5070982;28;20089;-79
2022/06/25 00:26:47;;;;;;;1.85;0.60;;;21.20;47.10;;;;;;5071271;28;20028;-79
2022/06/25 00:29:14;;;;;;;2.47;0.70;;;21.20;47.30;;;;;;5071661;28;20027;-79
2022/06/25 00:31:40;;;;;;;2.97;0.70;;;21.10;47.50;;;;;;5070567;28;20035;-79
2022/06/25 00:34:06;;;;;;;1.85;0.50;;;21.20;47.20;;;;;;5070742;28;20138;-79
2022/06/25 00:36:32;;;;;;;3.25;0.70;;;21.20;46.90;;;;;;5088090;28;20099;-79
2022/06/25 00:38:58;;;;;;;2.33;0.60;;;21.30;46.10;;;;;;5087857;28;20476;-78
2022/06/25 00:41:25;;;;;;;8.15;0.70;;;21.40;46.30;;;;;;5087745;28;20131;-79
2022/06/25 00:43:51;;;;;;;3.33;0.60;;;21.50;45.00;;;;;;5088212;28;20024;-78
2022/06/25 00:46:17;;;;;;;5.03;1.25;;;21.60;44.80;;;;;;5069242;28;20028;-77
2022/06/25 00:48:42;;;;;;;3.33;0.93;;;21.70;45.10;;;;;;5087801;28;20024;-78
2022/06/25 00:51:14;;;;;;;1.40;0.60;;;21.80;44.90;;;;;;5087642;28;20355;-77
2022/06/25 00:53:43;;;;;;;4.00;0.60;;;21.80;45.30;;;;;;5069975;28;20023;-78
2022/06/25 00:56:11;;;;;;;1.42;0.57;;;21.80;45.40;;;;;;5069328;28;20032;-78
2022/06/25 00:58:44;;;;;;;9.05;0.70;;;21.70;45.40;;;;;;5087366;28;20492;-79
2022/06/25 01:01:10;;;;;;;2.55;0.60;;;21.60;45.80;;;;;;5087841;28;20032;-78
2022/06/25 01:03:39;;;;;;;3.67;0.57;;;21.50;46.20;;;;;;5087122;28;20032;-78
2022/06/25 01:06:05;;;;;;;6.72;0.80;;;21.40;46.30;;;;;;5087469;28;20107;-79
2022/06/25 01:08:35;;;;;;;5.45;1.85;;;21.30;46.40;;;;;;5069324;28;20086;-78
2022/06/25 01:11:02;;;;;;;1.48;0.65;;;21.30;46.60;;;;;;5069445;28;20024;-78
2022/06/25 01:13:29;;;;;;;2.55;0.90;;;21.20;46.80;;;;;;5087832;28;20036;-79
2022/06/25 01:15:54;;;;;;;1.83;0.70;;;21.20;46.90;;;;;;5069138;28;20035;-77
2022/06/25 01:18:20;;;;;;;3.25;0.50;;;21.20;46.70;;;;;;5087198;28;20032;-78
2022/06/25 01:20:46;;;;;;;3.90;0.52;;;21.20;46.90;;;;;;5068915;28;20028;-78
2022/06/25 01:23:12;;;;;;;2.78;0.65;;;21.20;46.90;;;;;;5068733;28;20020;-77
2022/06/25 01:25:39;;;;;;;5.10;0.80;;;21.20;47.10;;;;;;5087124;28;20032;-78
2022/06/25 01:28:06;;;;;;;3.45;0.73;;;21.20;46.70;;;;;;5087311;28;20082;-78
2022/06/25 01:30:32;;;;;;;4.78;0.70;;;21.20;47.10;;;;;;5086669;28;20055;-77
2022/06/25 01:32:58;;;;;;;6.15;0.80;;;21.20;47.10;;;;;;5086889;28;20059;-79
2022/06/25 01:35:24;;;;;;;0.93;0.60;;;21.20;47.00;;;;;;5023795;28;1295234;-79
2022/06/25 01:37:50;;;;;;;2.58;0.60;;;21.10;46.90;;;;;;5087753;28;20032;-78
2022/06/25 01:40:16;;;;;;;1.50;0.70;;;21.20;46.90;;;;;;5069787;28;20457;-78
2022/06/25 01:43:00;;;;;;;1.75;0.52;;;21.20;46.90;;;;;;5087823;28;20459;-78
2022/06/25 01:45:30;;;;;;;1.65;0.75;;;21.20;46.70;;;;;;5088172;28;20670;-78
2022/06/25 01:47:55;;;;;;;2.42;0.90;;;21.20;46.70;;;;;;5087547;28;20028;-79
2022/06/25 01:50:22;;;;;;;2.83;0.75;;;21.20;46.60;;;;;;5069381;28;20039;-78
2022/06/25 01:52:47;;;;;;;1.65;0.65;;;21.30;46.70;;;;;;5087344;28;20032;-77
2022/06/25 01:55:14;;;;;;;3.75;0.60;;;21.30;46.50;;;;;;5087249;28;20397;-79
2022/06/25 01:57:39;;;;;;;7.93;0.70;;;21.30;46.60;;;;;;5068932;28;20031;-78
2022/06/25 02:00:08;;;;;;;2.50;0.57;;;21.30;46.60;;;;;;5087405;28;20447;-78
2022/06/25 02:02:35;;;;;;;1.83;0.55;;;21.40;46.50;;;;;;5086223;28;20058;-78
2022/06/25 02:05:01;;;;;;;3.17;0.68;;;21.40;46.80;;;;;;5069440;28;20051;-78
2022/06/25 02:07:26;;;;;;;4.00;0.65;;;21.50;46.50;;;;;;5068863;28;20488;-78
2022/06/25 02:09:52;;;;;;;1.52;0.60;;;21.50;46.50;;;;;;5069123;28;20028;-79
2022/06/25 02:12:18;;;;;;;3.95;0.60;;;21.60;46.60;;;;;;5068788;28;20471;-77
2022/06/25 02:14:43;;;;;;;1.45;0.60;;;21.60;46.50;;;;;;5087183;28;20476;-77
2022/06/25 02:17:09;;;;;;;2.53;0.50;;;21.60;46.30;;;;;;5087079;28;20038;-78
2022/06/25 02:19:35;;;;;;;3.67;0.45;;;21.70;46.30;;;;;;5068403;28;20040;-77
2022/06/25 02:22:00;;;;;;;5.57;0.88;;;21.70;46.20;;;;;;5086572;28;20107;-77
2022/06/25 02:24:26;;;;;;;1.83;0.60;;;21.80;46.20;;;;;;5086984;28;20032;-77
2022/06/25 02:26:52;;;;;;;2.95;0.80;;;21.80;46.10;;;;;;5086056;28;20023;-78
2022/06/25 02:29:17;;;;;;;1.58;0.65;;;21.90;46.10;;;;;;5087178;28;20036;-78
2022/06/25 02:31:43;;;;;;;2.97;0.60;;;21.90;46.00;;;;;;5086514;28;20052;-80
2022/06/25 02:34:09;;;;;;;4.35;0.70;;;21.90;45.80;;;;;;5068301;28;20123;-79
2022/06/25 02:36:34;;;;;;;1.80;0.80;;;22.00;45.80;;;;;;5067884;28;20124;-78
2022/06/25 02:39:00;;;;;;;3.17;0.63;;;22.00;45.70;;;;;;5068306;28;20093;-80
2022/06/25 02:41:26;;;;;;;5.28;0.50;;;22.00;45.60;;;;;;5086565;28;20779;-78
2022/06/25 02:43:51;;;;;;;1.48;0.60;;;22.10;45.60;;;;;;5068464;28;20028;-79
2022/06/25 02:46:17;;;;;;;3.90;0.60;;;22.10;45.50;;;;;;5086274;28;20062;-79
2022/06/25 02:48:42;;;;;;;8.88;0.60;;;22.10;45.20;;;;;;5068056;28;20031;-78
2022/06/25 02:51:08;;;;;;;8.70;0.70;;;22.10;45.20;;;;;;5086730;28;20100;-77
2022/06/25 02:53:34;;;;;;;3.83;0.77;;;22.20;45.20;;;;;;5084403;28;20027;-80
2022/06/25 02:58:55;;;;;;;3.33;0.68;;;22.30;44.90;;;;;;5086709;28;20519;-80
2022/06/25 03:01:22;;;;;;;7.47;0.70;;;22.30;45.00;;;;;;5068202;28;20293;-81
2022/06/25 03:03:48;;;;;;;2.78;0.52;;;22.40;44.90;;;;;;5086198;28;20122;-80
2022/06/25 03:06:14;;;;;;;1.40;0.63;;;22.40;44.60;;;;;;5068531;28;20120;-79
2022/06/25 03:08:40;;;;;;;1.83;0.60;;;22.50;44.50;;;;;;5086294;28;20028;-81
2022/06/25 03:11:06;;;;;;;2.42;0.60;;;22.60;44.10;;;;;;5067640;28;20081;-80
2022/06/25 03:13:34;;;;;;;4.18;0.50;;;22.60;44.00;;;;;;5068653;28;20115;-80
2022/06/25 03:16:00;;;;;;;1.77;0.70;;;22.60;43.90;;;;;;5085854;28;20024;-81
2022/06/25 03:18:26;;;;;;;4.57;0.70;;;22.60;43.90;;;;;;5068053;28;20477;-80
2022/06/25 03:20:52;;;;;;;2.17;0.50;;;22.60;43.90;;;;;;5085454;28;20050;-79
2022/06/25 03:23:19;;;;;;;4.13;0.65;;;22.60;43.90;;;;;;5085824;28;20103;-79
2022/06/25 03:25:45;;;;;;;6.00;0.52;;;22.60;43.80;;;;;;5068251;28;20055;-79
2022/06/25 03:28:10;;;;;;;1.15;0.50;;;22.60;43.90;;;;;;5067626;28;20488;-79
2022/06/25 03:30:36;;;;;;;3.92;0.75;;;22.70;43.90;;;;;;5068007;28;20505;-78
2022/06/25 03:33:02;;;;;;;1.10;0.50;;;22.60;44.00;;;;;;5085418;28;20378;-79
2022/06/25 03:35:28;;;;;;;7.22;0.80;;;22.60;44.00;;;;;;5084929;28;20214;-80
2022/06/25 03:37:53;;;;;;;5.57;1.00;;;22.60;44.20;;;;;;5067349;28;20028;-80
2022/06/25 03:40:19;;;;;;;3.38;0.85;;;22.70;44.30;;;;;;5067545;28;20439;-80
2022/06/25 03:42:45;;;;;;;2.70;0.70;;;22.70;45.00;;;;;;5085947;28;20260;-81
2022/06/25 03:45:11;;;;;;;2.65;1.00;;;22.70;44.40;;;;;;5083047;28;20036;-79
2022/06/25 03:47:37;;;;;;;7.80;0.90;;;22.80;44.30;;;;;;5070404;28;20420;-78
2022/06/25 03:50:02;;;;;;;2.63;0.80;;;22.90;44.30;;;;;;5075965;28;20033;-77
2022/06/25 03:52:28;;;;;;;2.17;0.60;;;23.00;44.40;;;;;;5077509;28;20049;-78
2022/06/25 03:54:54;;;;;;;5.13;0.93;;;23.00;45.00;;;;;;5077361;28;20032;-78
2022/06/25 03:57:20;;;;;;;5.00;1.05;;;23.10;44.60;;;;;;5076641;28;20467;-77
2022/06/25 03:59:46;;;;;;;2.83;0.90;;;23.20;44.60;;;;;;5072673;28;20152;-79
2022/06/25 04:02:11;;;;;;;3.53;0.88;;;23.30;44.50;;;;;;5072591;28;20074;-79
2022/06/25 04:04:37;;;;;;;2.90;1.33;;;23.30;44.50;;;;;;5065571;28;20047;-78
2022/06/25 04:07:03;;;;;;;2.08;0.65;;;23.40;44.60;;;;;;5088950;28;20047;-79
2022/06/25 04:09:30;;;;;;;2.28;0.77;;;23.60;44.20;;;;;;5068899;28;20034;-79
2022/06/25 04:11:56;;;;;;;1.15;0.50;;;23.80;44.20;;;;;;5066726;28;20428;-78
2022/06/25 04:14:22;;;;;;;10.13;0.98;;;24.10;43.80;;;;;;5070613;28;20036;-79
2022/06/25 04:16:47;;;;;;;8.40;0.82;;;24.10;43.30;;;;;;5071741;28;20558;-78
2022/06/25 04:19:13;;;;;;;2.47;0.82;;;24.10;43.50;;;;;;5079434;28;20040;-78
2022/06/25 04:21:39;;;;;;;1.55;0.70;;;24.10;43.50;;;;;;5078322;27;20103;-79
2022/06/25 04:24:05;;;;;;;4.65;0.93;;;24.00;43.80;;;;;;5085338;28;20036;-78
2022/06/25 04:26:30;;;;;;;2.95;0.80;;;23.80;44.10;;;;;;5077483;28;20115;-78
2022/06/25 04:29:06;;;;;;;1.83;0.80;;;23.80;44.50;;;;;;5059512;28;20046;-78
2022/06/25 04:31:33;;;;;;;4.03;0.83;;;23.80;44.70;;;;;;5081304;28;20150;-80
2022/06/25 04:33:59;;;;;;;2.85;0.88;;;23.70;45.30;;;;;;5071606;28;20094;-79
2022/06/25 04:36:24;;;;;;;7.88;0.73;;;23.60;45.50;;;;;;5073563;28;20500;-79
2022/06/25 04:38:50;;;;;;;3.58;1.33;;;23.50;45.90;;;;;;5071640;28;20554;-79
2022/06/25 04:41:17;;;;;;;1.63;0.70;;;23.40;46.30;;;;;;5088624;28;20028;-80
2022/06/25 04:43:43;;;;;;;1.48;0.60;;;23.40;46.70;;;;;;5088662;28;20461;-79
2022/06/25 04:46:08;;;;;;;3.65;0.93;;;23.40;46.90;;;;;;5088940;28;20036;-80
2022/06/25 04:48:34;;;;;;;6.13;1.40;;;23.50;47.00;;;;;;5088563;28;20160;-81
2022/06/25 04:51:00;;;;;;;2.10;0.50;;;23.80;47.00;;;;;;5070333;28;20020;-80
2022/06/25 04:53:25;;;;;;;3.40;0.90;;;24.10;46.30;;;;;;5071008;28;20124;-80
2022/06/25 04:55:51;;;;;;;3.90;0.85;;;24.30;46.00;;;;;;5089072;28;20032;-81
2022/06/25 04:58:17;;;;;;;4.30;1.13;;;24.70;45.40;;;;;;5069522;28;20850;-81
2022/06/25 05:00:43;;;;;;;3.05;1.02;;;25.10;44.50;;;;;;5088622;28;20762;-81
2022/06/25 05:03:09;;;;;;;13.60;1.65;;;25.40;44.20;;;;;;5088852;28;20057;-81
2022/06/25 05:05:35;;;;;;;3.65;1.00;;;25.50;43.70;;;;;;5070087;28;20119;-81
2022/06/25 05:08:01;;;;;;;2.83;1.27;;;25.80;43.40;;;;;;5069855;28;20032;-81
2022/06/25 05:10:27;;;;;;;5.30;0.80;;;26.00;42.80;;;;;;5088324;28;20031;-78
2022/06/25 05:13:14;;;;;;;4.50;0.82;;;26.10;42.30;;;;;;5070093;28;20059;-78
2022/06/25 05:15:41;;;;;;;3.28;1.33;;;26.30;42.50;;;;;;5087340;28;20040;-79
2022/06/25 05:18:08;;;;;;;5.72;0.70;;;26.50;42.20;;;;;;5088503;28;20040;-79
2022/06/25 05:20:40;;;;;;;4.05;1.10;;;26.80;42.30;;;;;;5088741;28;20035;-79
2022/06/25 05:23:06;;;;;;;6.45;1.10;;;27.00;40.80;;;;;;5069647;28;20146;-80
2022/06/25 05:25:32;;;;;;;5.38;1.10;;;26.90;40.40;;;;;;5070290;28;20768;-79
2022/06/25 05:27:57;;;;;;;5.68;1.10;;;26.80;40.80;;;;;;5087983;28;20107;-79
2022/06/25 05:30:23;;;;;;;9.82;1.00;;;26.80;41.00;;;;;;5088049;28;20034;-79
2022/06/25 05:32:49;;;;;;;4.93;1.15;;;26.90;40.60;;;;;;5087181;28;20496;-79
2022/06/25 05:35:14;;;;;;;3.63;1.00;;;27.00;40.80;;;;;;5069066;28;20130;-80
2022/06/25 05:37:40;;;;;;;8.48;1.10;;;27.20;40.40;;;;;;5069739;28;20020;-79
2022/06/25 05:40:06;;;;;;;3.83;0.70;;;27.30;40.30;;;;;;5087981;28;20048;-78
2022/06/25 05:42:32;;;;;;;2.47;1.05;;;27.30;40.10;;;;;;5084231;28;20119;-79
2022/06/25 05:44:57;;;;;;;5.25;1.05;;;27.40;40.50;;;;;;5078572;28;20028;-78
2022/06/25 05:47:23;;;;;;;21.95;1.60;;;27.60;40.20;;;;;;5087737;28;20020;-80
2022/06/25 05:49:49;;;;;;;3.13;0.90;;;27.60;39.60;;;;;;5069436;28;20050;-78
2022/06/25 05:52:14;;;;;;;5.97;1.08;;;27.50;39.40;;;;;;5070373;28;20495;-80
2022/06/25 05:54:40;;;;;;;2.85;1.02;;;27.40;39.90;;;;;;5088472;28;20243;-79
2022/06/25 05:57:07;;;;;;;11.70;1.10;;;27.50;39.30;;;;;;5088671;28;20016;-79
2022/06/25 05:59:33;;;;;;;11.00;1.05;;;27.60;39.50;;;;;;5087424;28;20040;-80
2022/06/25 06:01:59;;;;;;;3.80;1.10;;;27.70;39.80;;;;;;5069465;28;20028;-79
2022/06/25 06:04:24;;;;;;;6.47;1.10;;;28.00;38.50;;;;;;5068834;28;20503;-78
2022/06/25 06:06:51;;;;;;;3.33;1.05;;;28.10;39.10;;;;;;5068734;28;20123;-78
2022/06/25 06:09:17;;;;;;;4.93;1.00;;;27.90;39.30;;;;;;5068532;28;20518;-79
2022/06/25 06:11:43;;;;;;;2.85;0.80;;;28.00;39.50;;;;;;5088661;28;20023;-80
2022/06/25 06:14:08;;;;;;;5.40;1.55;;;28.60;38.40;;;;;;5069160;28;20040;-79
2022/06/25 06:16:34;;;;;;;2.55;1.00;;;29.30;37.00;;;;;;5086788;28;20810;-79
2022/06/25 06:19:00;;;;;;;6.40;1.15;;;30.40;36.50;;;;;;5069151;28;20062;-79
2022/06/25 06:21:26;;;;;;;6.18;1.40;;;31.20;36.10;;;;;;5068817;28;20028;-80
2022/06/25 06:23:51;;;;;;;2.25;1.23;;;32.10;34.10;;;;;;5087540;28;20042;-79
2022/06/25 06:26:17;;;;;;;4.88;1.50;;;32.40;33.70;;;;;;5087531;28;20527;-78
2022/06/25 06:28:43;;;;;;;7.80;1.27;;;32.40;32.70;;;;;;5069448;28;20472;-78
2022/06/25 06:31:09;;;;;;;7.30;1.38;;;32.50;32.60;;;;;;5069900;28;20024;-78
2022/06/25 06:33:35;;;;;;;4.35;1.35;;;32.70;32.00;;;;;;5088024;28;20091;-78
2022/06/25 06:36:02;;;;;;;4.65;1.33;;;32.80;32.20;;;;;;5069007;28;20043;-79
2022/06/25 06:38:27;;;;;;;16.42;1.52;;;32.60;32.30;;;;;;5087368;28;20056;-79
2022/06/25 06:40:53;;;;;;;4.18;1.20;;;32.90;31.60;;;;;;5088454;28;20153;-80
2022/06/25 06:43:19;;;;;;;4.20;1.00;;;33.20;30.60;;;;;;5088348;28;20056;-79
2022/06/25 06:45:44;;;;;;;17.67;1.38;;;33.60;30.70;;;;;;5086505;28;20027;-80
2022/06/25 06:48:13;;;;;;;4.03;0.85;;;34.10;29.80;;;;;;5069408;28;20024;-78
2022/06/25 06:50:39;;;;;;;2.13;1.10;;;34.20;29.40;;;;;;5067565;28;20126;-79
2022/06/25 06:53:05;;;;;;;3.00;0.90;;;34.10;29.80;;;;;;5068574;28;20107;-80
2022/06/25 06:55:31;;;;;;;5.78;1.17;;;33.80;30.00;;;;;;5068519;28;20040;-78
2022/06/25 06:57:56;;;;;;;2.58;1.10;;;33.60;29.40;;;;;;5086294;28;20085;-80
2022/06/25 07:00:22;;;;;;;6.15;1.20;;;33.60;30.00;;;;;;5065779;28;20051;-80
2022/06/25 07:02:47;;;;;;;3.22;1.30;;;33.60;29.90;;;;;;5064185;28;20120;-80
2022/06/25 07:05:13;;;;;;;6.65;1.00;;;33.50;30.50;;;;;;5066340;28;20409;-80
2022/06/25 07:07:39;;;;;;;10.23;1.75;;;33.30;29.70;;;;;;5078531;28;20028;-80
2022/06/25 07:10:05;;;;;;;5.47;1.45;;;33.30;30.60;;;;;;5086685;28;20028;-81
2022/06/25 07:12:31;;;;;;;5.00;1.40;;;33.40;30.50;;;;;;5068234;28;20032;-80
2022/06/25 07:14:57;;;;;;;3.60;1.10;;;33.30;30.30;;;;;;5084839;28;20103;-80
2022/06/25 07:17:22;;;;;;;2.88;1.17;;;33.30;30.70;;;;;;5067653;28;20123;-80
2022/06/25 07:19:48;;;;;;;4.43;1.40;;;33.60;31.00;;;;;;5086191;28;20416;-81
2022/06/25 07:22:14;;;;;;;2.83;1.20;;;33.80;30.40;;;;;;5085835;28;20031;-81
2022/06/25 07:24:39;;;;;;;14.95;1.38;;;34.70;29.70;;;;;;5067895;28;20488;-82
2022/06/25 07:27:06;;;;;;;7.05;1.38;;;34.90;29.00;;;;;;5086539;28;20217;-81
2022/06/25 07:29:31;;;;;;;4.65;1.05;;;35.10;28.30;;;;;;5067852;28;20031;-80
2022/06/25 07:31:57;;;;;;;6.82;1.10;;;35.30;28.70;;;;;;5085350;28;20558;-81
2022/06/25 07:34:23;;;;;;;3.03;1.40;;;35.90;28.60;;;;;;5057900;28;20071;-79
2022/06/25 07:36:48;;;;;;;3.25;1.13;;;36.40;27.70;;;;;;5065679;28;20074;-79
2022/06/25 07:39:14;;;;;;;11.32;1.75;;;36.20;28.10;;;;;;5066203;28;20048;-79
2022/06/25 07:41:40;;;;;;;8.30;1.58;;;36.30;28.20;;;;;;5048016;28;20023;-77
2022/06/25 07:44:06;;;;;;;4.63;1.55;;;36.40;28.30;;;;;;5064218;28;20040;-79
2022/06/25 07:46:31;;;;;;;11.57;1.30;;;36.40;28.60;;;;;;5067566;28;20090;-79
2022/06/25 07:48:57;;;;;;;10.27;1.67;;;36.40;28.20;;;;;;5086142;28;20539;-78
2022/06/25 07:54:07;;;;;;;10.13;1.85;;;36.50;28.40;;;;;;5086489;28;20093;-77
2022/06/25 07:56:32;;;;;;;9.57;1.45;;;36.20;28.50;;;;;;5068588;28;20024;-79
2022/06/25 07:58:59;;;;;;;6.82;1.85;;;35.90;28.90;;;;;;5071298;28;20036;-79
2022/06/25 08:01:24;;;;;;;16.02;1.48;;;35.80;29.60;;;;;;5089885;28;20026;-79
2022/06/25 08:03:50;;;;;;;4.35;1.30;;;35.90;29.30;;;;;;5071821;28;20031;-79
2022/06/25 08:06:16;;;;;;;6.32;1.75;;;36.10;29.00;;;;;;5089462;28;20035;-79
2022/06/25 08:08:41;;;;;;;6.57;1.65;;;36.40;29.10;;;;;;5089962;28;20020;-80
2022/06/25 08:11:07;;;;;;;10.07;2.25;;;36.50;28.70;;;;;;5089620;28;20028;-79
2022/06/25 08:13:33;;;;;;;8.85;1.25;;;36.30;29.20;;;;;;5071871;28;20024;-79
2022/06/25 08:15:59;;;;;;;10.07;1.38;;;36.30;29.20;;;;;;5089201;28;20052;-79
2022/06/25 08:18:25;;;;;;;5.70;1.30;;;36.20;28.40;;;;;;5071615;28;20034;-78
2022/06/25 08:20:51;;;;;;;10.10;1.88;;;36.40;28.20;;;;;;5070017;28;20040;-79
2022/06/25 08:23:17;;;;;;;11.07;1.42;;;36.20;28.00;;;;;;5089640;28;20059;-79
2022/06/25 08:25:43;;;;;;;5.57;1.13;;;36.20;26.50;;;;;;5071072;28;20043;-78
2022/06/25 08:28:08;;;;;;;5.78;1.15;;;36.30;26.90;;;;;;5089443;28;20024;-79
2022/06/25 08:30:35;;;;;;;4.05;0.98;;;36.70;26.30;;;;;;5088669;28;20036;-78
2022/06/25 08:33:01;;;;;;;4.07;1.08;;;36.60;26.40;;;;;;5089475;28;20026;-79
2022/06/25 08:35:27;;;;;;;7.80;1.60;;;36.90;25.90;;;;;;5070281;28;20056;-78
2022/06/25 08:37:53;;;;;;;6.38;1.20;;;37.20;26.30;;;;;;5071580;28;20563;-79
2022/06/25 08:40:20;;;;;;;5.25;1.00;;;37.00;25.60;;;;;;5089170;28;20090;-79
2022/06/25 08:42:50;;;;;;;3.58;1.90;;;36.90;26.00;;;;;;5069959;28;20016;-79
2022/06/25 08:45:19;;;;;;;5.43;1.13;;;36.60;26.60;;;;;;5070440;28;20039;-79
2022/06/25 08:47:47;;;;;;;5.57;1.42;;;36.80;26.70;;;;;;5089024;28;20103;-80
2022/06/25 08:50:16;;;;;;;3.65;1.00;;;37.00;26.60;;;;;;5070510;28;20035;-80
2022/06/25 08:52:46;;;;;;;6.43;1.30;;;37.30;26.80;;;;;;5088838;28;20528;-79
2022/06/25 08:55:23;;;;;;;1.92;1.13;;;37.60;26.70;;;;;;5070707;28;20111;-80
2022/06/25 08:57:49;;;;;;;3.75;1.30;;;37.50;26.20;;;;;;5088602;28;20105;-80
2022/06/25 09:00:14;;;;;;;8.00;1.40;;;37.60;25.90;;;;;;5087951;28;20506;-79
2022/06/25 09:02:40;;;;;;;8.40;1.40;;;37.60;26.00;;;;;;5088713;28;20020;-80
2022/06/25 09:05:08;;;;;;;5.15;1.38;;;37.80;25.60;;;;;;5070308;28;20031;-79
2022/06/25 09:07:35;;;;;;;4.75;1.15;;;37.20;25.70;;;;;;5069421;28;20667;-79
2022/06/25 09:10:00;;;;;;;5.35;1.40;;;36.80;26.30;;;;;;5088570;28;20028;-79
2022/06/25 09:12:26;;;;;;;4.78;1.15;;;36.60;26.60;;;;;;5088887;28;20016;-79
2022/06/25 09:14:52;;;;;;;13.20;1.98;;;36.40;26.50;;;;;;5087911;28;20469;-80
2022/06/25 09:17:17;;;;;;;4.78;1.23;;;36.80;26.80;;;;;;5070119;28;20036;-80
2022/06/25 09:19:51;;;;;;;5.35;1.42;;;37.30;26.00;;;;;;5088340;28;20032;-79
2022/06/25 09:22:22;;;;;;;4.10;1.23;;;37.60;26.60;;;;;;5087257;28;20020;-79
2022/06/25 09:24:53;;;;;;;5.63;1.15;;;38.10;26.10;;;;;;5087959;28;20484;-79
2022/06/25 09:27:20;;;;;;;8.60;1.70;;;38.50;26.00;;;;;;5069911;28;20024;-80
2022/06/25 09:29:51;;;;;;;5.72;1.50;;;38.70;25.30;;;;;;5069787;28;20073;-79
2022/06/25 09:32:17;;;;;;;6.40;1.48;;;38.20;25.60;;;;;;5069432;28;20069;-79
2022/06/25 09:34:44;;;;;;;7.50;1.10;;;37.80;26.20;;;;;;5069052;28;20048;-79
2022/06/25 09:37:21;;;;;;;7.68;1.30;;;37.20;26.30;;;;;;5088087;28;20039;-78
2022/06/25 09:39:47;;;;;;;3.03;1.13;;;37.00;26.60;;;;;;5087571;28;20181;-79
2022/06/25 09:42:23;;;;;;;7.63;1.30;;;37.20;26.60;;;;;;5069853;28;20051;-79
2022/06/25 09:45:04;;;;;;;2.17;1.42;;;37.70;26.40;;;;;;5086853;28;20028;-80
2022/06/25 09:47:30;;;;;;;2.35;1.10;;;38.10;26.00;;;;;;5087601;28;20103;-80
2022/06/25 09:50:07;;;;;;;4.75;1.20;;;38.30;26.00;;;;;;5088390;28;20036;-78
2022/06/25 09:52:34;;;;;;;3.28;1.15;;;38.00;26.00;;;;;;5087628;28;20039;-80
2022/06/25 09:54:59;;;;;;;5.07;1.42;;;37.40;26.30;;;;;;5087205;28;20051;-79
2022/06/25 09:57:27;;;;;;;3.85;1.40;;;36.90;26.40;;;;;;5087930;28;20713;-79
2022/06/25 09:59:54;;;;;;;3.58;1.08;;;36.60;27.00;;;;;;5068927;28;20085;-79
2022/06/25 10:02:20;;;;;;;5.03;1.20;;;36.60;27.50;;;;;;5087258;28;20020;-78
2022/06/25 10:04:47;;;;;;;9.60;1.60;;;36.60;27.20;;;;;;5086872;28;20035;-78
2022/06/25 10:07:15;;;;;;;9.05;1.30;;;36.20;27.50;;;;;;5087332;28;20048;-78
2022/06/25 10:09:42;;;;;;;2.28;1.15;;;36.10;27.90;;;;;;5087719;28;20035;-78
2022/06/25 10:12:09;;;;;;;12.43;1.23;;;36.20;28.10;;;;;;5087162;28;20027;-76
2022/06/25 10:14:36;;;;;;;2.22;1.02;;;36.50;27.60;;;;;;5086632;28;20035;-77
2022/06/25 10:17:04;;;;;;;3.30;1.27;;;36.70;27.60;;;;;;5087507;28;20099;-79
2022/06/25 10:19:31;;;;;;;3.25;1.25;;;36.70;27.20;;;;;;5067974;28;20081;-79
2022/06/25 10:21:58;;;;;;;5.30;1.15;;;36.90;27.60;;;;;;5068624;28;20102;-78
2022/06/25 10:24:24;;;;;;;4.88;1.48;;;37.10;27.00;;;;;;5069209;28;20030;-78
2022/06/25 10:26:50;;;;;;;9.60;1.40;;;37.00;26.90;;;;;;5068334;28;20051;-77
2022/06/25 10:29:26;;;;;;;5.45;1.40;;;36.50;26.90;;;;;;5086911;28;20237;-79
2022/06/25 10:32:15;;;;;;;6.15;1.10;;;36.30;27.50;;;;;;5086907;28;20024;-78
2022/06/25 10:35:01;;;;;;;7.03;1.77;;;36.30;28.10;;;;;;5086028;28;20062;-78
2022/06/25 10:37:26;;;;;;;6.07;1.30;;;36.40;27.50;;;;;;5068235;28;20039;-78
2022/06/25 10:39:54;;;;;;;5.10;1.70;;;36.40;27.20;;;;;;5066857;28;20413;-79
2022/06/25 10:45:03;;;;;;;7.30;1.00;;;36.20;27.60;;;;;;5086315;28;20030;-79
2022/06/25 10:47:40;;;;;;;9.13;0.95;;;36.50;27.80;;;;;;5086677;28;20036;-80
2022/06/25 10:50:21;;;;;;;10.23;1.98;;;36.30;27.80;;;;;;5085881;28;20023;-80
2022/06/25 10:53:05;;;;;;;6.30;1.33;;;36.10;27.60;;;;;;5086718;28;20113;-81
2022/06/25 10:55:36;;;;;;;3.13;1.27;;;36.00;27.60;;;;;;5068354;28;20494;-81
2022/06/25 10:58:15;;;;;;;12.65;5.93;;;35.80;27.50;;;;;;5067979;28;20032;-81
2022/06/25 11:00:52;;;;;;;4.35;1.13;;;35.60;27.90;;;;;;5067968;28;20048;-80
2022/06/25 11:03:38;;;;;;;6.45;1.27;;;35.20;27.60;;;;;;5086143;28;20463;-80
2022/06/25 11:06:23;;;;;;;9.88;1.38;;;34.70;28.10;;;;;;5068183;28;20044;-80
2022/06/25 11:08:50;;;;;;;8.15;1.20;;;34.50;28.50;;;;;;5086447;28;20032;-80
2022/06/25 11:11:29;;;;;;;16.42;2.25;;;34.40;29.00;;;;;;5067436;28;20032;-78
2022/06/25 11:13:57;;;;;;;3.85;1.48;;;34.30;29.00;;;;;;5067511;28;20028;-80
2022/06/25 11:16:23;;;;;;;3.75;1.35;;;34.20;29.10;;;;;;5085424;28;20024;-80
2022/06/25 11:18:53;;;;;;;10.27;1.35;;;34.10;28.80;;;;;;5086231;28;20089;-80
2022/06/25 11:21:31;;;;;;;8.93;1.65;;;33.90;29.00;;;;;;5067774;28;20115;-81
2022/06/25 11:24:07;;;;;;;7.93;1.55;;;33.80;29.30;;;;;;5085883;28;20031;-79
2022/06/25 11:29:24;;;;;;;9.48;1.55;;;34.20;30.00;;;;;;5086149;28;20530;-79
2022/06/25 11:31:51;;;;;;;7.05;1.58;;;34.50;29.10;;;;;;5070483;28;20032;-80
2022/06/25 11:34:19;;;;;;;3.90;1.20;;;34.60;28.90;;;;;;5090153;28;20044;-79
2022/06/25 11:36:45;;;;;;;5.55;1.05;;;34.40;29.30;;;;;;5090036;28;20027;-79
2022/06/25 11:39:15;;;;;;;7.30;1.42;;;34.20;29.30;;;;;;5090565;28;20063;-79
2022/06/25 11:41:41;;;;;;;8.10;1.20;;;34.00;30.10;;;;;;5090160;28;20023;-79
2022/06/25 11:44:07;;;;;;;5.43;1.33;;;33.80;29.70;;;;;;5071681;28;20024;-79
2022/06/25 11:46:34;;;;;;;6.47;1.70;;;33.70;29.50;;;;;;5071634;28;20428;-79
2022/06/25 11:49:04;;;;;;;7.05;1.50;;;33.70;29.90;;;;;;5090105;28;20025;-81
2022/06/25 11:51:31;;;;;;;3.45;1.10;;;33.60;29.70;;;;;;5090049;28;20039;-79
2022/06/25 11:54:02;;;;;;;6.95;2.28;;;33.60;30.00;;;;;;5090481;28;20408;-80
2022/06/25 11:56:28;;;;;;;7.88;1.60;;;33.40;30.10;;;;;;5090118;28;20044;-79
2022/06/25 11:58:54;;;;;;;8.25;1.67;;;33.10;30.20;;;;;;5089099;28;20089;-80
2022/06/25 12:01:30;;;;;;;15.10;2.20;;;32.90;30.40;;;;;;5071765;28;20031;-77
2022/06/25 12:03:56;;;;;;;5.10;1.30;;;33.00;31.20;;;;;;5089824;28;20047;-80
2022/06/25 12:06:22;;;;;;;6.05;1.83;;;33.00;30.50;;;;;;5089337;28;20445;-80
2022/06/25 12:08:49;;;;;;;7.85;1.50;;;32.90;30.40;;;;;;5071599;28;20040;-80
2022/06/25 12:11:15;;;;;;;12.60;1.60;;;32.70;30.30;;;;;;5071084;28;20127;-81
2022/06/25 12:13:40;;;;;;;7.72;1.63;;;32.50;31.20;;;;;;5089505;28;20106;-79
2022/06/25 12:16:06;;;;;;;10.57;1.50;;;32.40;31.40;;;;;;5089208;28;20032;-79
2022/06/25 12:18:43;;;;;;;7.15;1.33;;;32.20;31.50;;;;;;5071270;28;20543;-81
2022/06/25 12:21:10;;;;;;;6.47;1.67;;;32.20;32.00;;;;;;5071133;28;20127;-80
2022/06/25 12:23:59;;;;;;;4.35;1.77;;;32.10;31.90;;;;;;5089460;28;20042;-81
2022/06/25 12:26:29;;;;;;;5.72;1.83;;;32.20;32.20;;;;;;5071229;28;20024;-80
2022/06/25 12:29:24;;;;;;;9.48;2.42;;;32.00;33.80;;;;;;5089050;28;20032;-80
2022/06/25 12:31:58;;;;;;;15.98;2.03;;;31.90;36.40;;;;;;5085697;28;20036;-81
2022/06/25 12:34:25;;;;;;;23.02;2.47;;;31.70;39.30;;;;;;5070886;28;20058;-79
2022/06/25 12:36:52;;;;;;;25.10;3.38;;;31.50;42.60;;;;;;5089223;28;20024;-80
2022/06/25 12:39:34;;;;;;;23.30;3.97;;;31.10;46.70;;;;;;5070625;28;20385;-79
2022/06/25 12:42:12;;;;;;;17.48;2.30;;;30.50;49.00;;;;;;5088743;28;20043;-80
2022/06/25 12:44:40;;;;;;;12.48;2.17;;;29.60;49.80;;;;;;5070945;28;20024;-79
2022/06/25 12:47:08;;;;;;;7.60;2.15;;;28.80;51.50;;;;;;5070550;28;20039;-79
2022/06/25 12:49:54;;;;;;;8.82;1.77;;;28.10;51.10;;;;;;5070645;28;20066;-79
2022/06/25 12:52:23;;;;;;;11.70;2.65;;;27.50;53.70;;;;;;5070794;28;20020;-79
2022/06/25 12:54:56;;;;;;;13.48;2.85;;;27.00;56.80;;;;;;5088355;28;20508;-79
2022/06/25 12:57:28;;;;;;;21.75;3.95;;;26.70;58.90;;;;;;5088746;28;20081;-79
2022/06/25 12:59:55;;;;;;;15.95;4.40;;;26.20;62.90;;;;;;5070183;28;20046;-80
2022/06/25 13:02:22;;;;;;;12.85;3.28;;;25.80;65.20;;;;;;5088785;28;20073;-79
2022/06/25 13:04:49;;;;;;;25.13;3.30;;;25.50;63.50;;;;;;5088038;28;20131;-80